createdAt,value
2022-10-05T00:00:35.416Z,73.23
2022-10-05T00:04:32.977Z,73.21
2022-10-05T00:08:19.944Z,73.34
2022-10-05T00:11:56.935Z,73.46
2022-10-05T00:15:33.952Z,73.54
2022-10-05T00:19:35.400Z,73.63
2022-10-05T00:23:19.517Z,73.57
2022-10-05T00:26:57.961Z,73.72
2022-10-05T00:30:34.450Z,73.72
2022-10-05T00:34:10.769Z,73.65
2022-10-05T00:37:53.671Z,73.60
2022-10-05T00:41:44.665Z,73.64
2022-10-05T00:45:28.256Z,73.68
2022-10-05T00:49:35.454Z,73.73
2022-10-05T00:53:18.569Z,73.65
2022-10-05T00:57:02.177Z,73.77
2022-10-05T01:01:06.467Z,73.82
2022-10-05T01:04:52.988Z,73.82
2022-10-05T01:09:03.436Z,73.80
2022-10-05T01:12:48.857Z,73.89
2022-10-05T01:16:53.379Z,73.89
2022-10-05T01:20:51.662Z,73.97
2022-10-05T01:24:45.189Z,73.99
2022-10-05T01:28:43.355Z,74.06
2022-10-05T01:33:01.302Z,74.09
2022-10-05T01:36:58.799Z,74.17
2022-10-05T01:40:40.493Z,74.21
2022-10-05T01:44:21.812Z,74.22
2022-10-05T01:48:08.133Z,74.19
2022-10-05T01:52:01.545Z,74.26
2022-10-05T01:56:02.634Z,74.26
2022-10-05T02:00:00.406Z,74.26
2022-10-05T02:03:46.166Z,74.31
2022-10-05T02:07:54.106Z,74.31
2022-10-05T02:11:29.985Z,74.30
2022-10-05T02:15:34.279Z,74.34
2022-10-05T02:19:36.123Z,74.43
2022-10-05T02:23:19.504Z,74.40
2022-10-05T02:26:58.695Z,74.42
2022-10-05T02:30:42.505Z,74.52
2022-10-05T02:34:30.631Z,74.47
2022-10-05T02:38:53.944Z,74.38
2022-10-05T02:42:41.795Z,74.34
2022-10-05T02:46:50.963Z,74.35
2022-10-05T02:50:39.233Z,74.34
2022-10-05T02:54:24.113Z,74.29
2022-10-05T02:58:22.575Z,74.25
2022-10-05T03:02:09.686Z,74.21
2022-10-05T03:06:01.503Z,74.20
2022-10-05T03:09:44.440Z,74.12
2022-10-05T03:13:26.161Z,74.11
2022-10-05T03:17:17.569Z,74.04
2022-10-05T03:21:19.136Z,74.12
2022-10-05T03:25:01.509Z,74.09
2022-10-05T03:29:14.431Z,74.13
2022-10-05T03:33:08.715Z,74.17
2022-10-05T03:36:55.002Z,74.20
2022-10-05T03:40:44.944Z,74.19
2022-10-05T03:44:34.961Z,74.21
2022-10-05T03:48:28.174Z,74.25
2022-10-05T03:52:15.504Z,74.33
2022-10-05T03:56:03.360Z,74.31
2022-10-05T04:00:16.085Z,74.32
2022-10-05T04:03:59.617Z,74.36
2022-10-05T04:07:43.642Z,74.34
2022-10-05T04:11:42.241Z,74.39
2022-10-05T04:15:43.136Z,74.38
2022-10-05T04:19:30.562Z,74.43
2022-10-05T04:23:51.328Z,74.39
2022-10-05T04:27:42.109Z,74.26
2022-10-05T04:31:33.904Z,74.26
2022-10-05T04:35:17.698Z,74.15
2022-10-05T04:39:20.780Z,74.10
2022-10-05T04:43:08.724Z,74.01
2022-10-05T04:47:07.614Z,73.96
2022-10-05T04:51:31.323Z,73.91
2022-10-05T04:55:26.453Z,73.80
2022-10-05T04:59:57.711Z,73.84
2022-10-05T05:04:01.585Z,73.72
2022-10-05T05:08:10.594Z,73.60
2022-10-05T05:12:28.374Z,73.65
2022-10-05T05:16:36.831Z,73.64
2022-10-05T05:20:35.460Z,73.62
2022-10-05T05:24:23.370Z,73.54
2022-10-05T05:28:04.261Z,73.57
2022-10-05T05:31:58.029Z,73.51
2022-10-05T05:35:45.688Z,73.57
2022-10-05T05:39:54.718Z,73.61
2022-10-05T05:43:52.208Z,73.64
2022-10-05T05:47:39.246Z,73.70
2022-10-05T05:51:20.221Z,73.78
2022-10-05T05:55:06.518Z,73.86
2022-10-05T05:58:49.069Z,73.77
2022-10-05T06:02:32.072Z,73.72
2022-10-05T06:06:17.820Z,73.71
2022-10-05T06:10:01.858Z,73.52
2022-10-05T06:13:43.142Z,73.35
2022-10-05T06:17:21.942Z,73.17
2022-10-05T06:21:15.898Z,72.92
2022-10-05T06:25:30.043Z,72.77
2022-10-05T06:29:12.005Z,72.71
2022-10-05T06:33:02.676Z,72.55
2022-10-05T06:36:51.182Z,72.49
2022-10-05T06:40:44.234Z,72.41
2022-10-05T06:45:02.174Z,72.43
2022-10-05T06:48:38.547Z,72.18
2022-10-05T06:52:43.738Z,72.09
2022-10-05T06:56:57.537Z,71.99
2022-10-05T07:00:51.157Z,71.95
2022-10-05T07:04:49.352Z,71.85
2022-10-05T07:08:52.002Z,71.66
2022-10-05T07:13:09.877Z,71.58
2022-10-05T07:17:02.399Z,71.57
2022-10-05T07:20:49.442Z,71.46
2022-10-05T07:24:55.265Z,71.38
2022-10-05T07:28:52.948Z,71.20
2022-10-05T07:32:58.597Z,71.05
2022-10-05T07:36:37.712Z,70.92
2022-10-05T07:40:21.592Z,70.72
2022-10-05T07:44:17.735Z,70.57
2022-10-05T07:47:57.022Z,70.25
2022-10-05T07:51:41.388Z,69.85
2022-10-05T07:55:24.844Z,69.65
2022-10-05T07:59:12.378Z,69.30
2022-10-05T08:03:11.645Z,68.97
2022-10-05T08:06:57.357Z,68.63
2022-10-05T08:10:59.895Z,68.39
2022-10-05T08:14:38.562Z,68.05
2022-10-05T08:18:59.717Z,67.42
2022-10-05T08:22:47.530Z,67.17
2022-10-05T08:26:51.398Z,67.07
2022-10-05T08:30:31.483Z,66.83
2022-10-05T08:34:14.390Z,66.47
2022-10-05T08:37:52.971Z,66.41
2022-10-05T08:41:54.386Z,66.14
2022-10-05T08:45:42.636Z,66.05
2022-10-05T08:49:34.997Z,65.86
2022-10-05T08:53:31.320Z,65.74
2022-10-05T08:57:16.388Z,65.56
2022-10-05T09:01:10.085Z,65.23
2022-10-05T09:05:03.553Z,65.07
2022-10-05T09:09:37.621Z,64.61
2022-10-05T09:12:32.464Z,64.31
2022-10-05T09:16:14.205Z,64.07
2022-10-05T09:19:55.444Z,63.86
2022-10-05T09:23:41.846Z,63.08
2022-10-05T09:27:18.798Z,62.31
2022-10-05T09:31:23.100Z,61.70
2022-10-05T09:35:32.444Z,60.84
2022-10-05T09:39:20.751Z,59.93
2022-10-05T09:43:28.281Z,59.01
2022-10-05T09:47:14.348Z,58.40
2022-10-05T09:51:43.877Z,56.85
2022-10-05T09:55:35.394Z,56.36
2022-10-05T09:59:30.685Z,55.62
2022-10-05T10:03:40.528Z,55.25
2022-10-05T10:07:21.138Z,55.22
2022-10-05T10:11:05.855Z,54.85
2022-10-05T10:15:10.021Z,55.20
2022-10-05T10:19:04.317Z,55.22
2022-10-05T10:23:12.823Z,55.40
2022-10-05T10:27:36.876Z,55.30
2022-10-05T10:31:51.290Z,55.23
2022-10-05T10:35:38.383Z,54.75
2022-10-05T10:39:17.480Z,54.36
2022-10-05T10:43:05.857Z,53.70
2022-10-05T10:47:19.675Z,53.63
2022-10-05T10:51:11.368Z,52.91
2022-10-05T10:55:16.311Z,52.52
2022-10-05T10:59:32.132Z,52.23
2022-10-05T11:03:36.647Z,52.00
2022-10-05T11:07:46.332Z,52.02
2022-10-05T11:11:41.204Z,51.86
2022-10-05T11:15:48.172Z,51.60
2022-10-05T11:20:03.260Z,51.88
2022-10-05T11:23:55.450Z,51.82
2022-10-05T11:27:37.265Z,51.69
2022-10-05T11:31:26.664Z,52.02
2022-10-05T11:35:40.392Z,52.21
2022-10-05T11:39:28.660Z,52.54
2022-10-05T11:43:23.806Z,52.28
2022-10-05T11:47:48.747Z,51.90
2022-10-05T11:51:33.440Z,51.42
2022-10-05T11:55:33.433Z,51.23
2022-10-05T11:59:18.681Z,51.27
2022-10-05T12:03:12.550Z,51.30
2022-10-05T12:07:27.134Z,51.62
2022-10-05T12:11:22.820Z,51.80
2022-10-05T12:15:23.916Z,51.57
2022-10-05T12:19:18.466Z,51.35
2022-10-05T12:23:13.653Z,51.66
2022-10-05T12:26:58.661Z,51.46
2022-10-05T12:31:00.605Z,51.55
2022-10-05T12:34:56.516Z,51.57
2022-10-05T12:39:03.205Z,51.70
2022-10-05T12:43:15.174Z,51.71
2022-10-05T12:47:28.596Z,51.58
2022-10-05T12:51:22.670Z,51.48
2022-10-05T12:55:26.259Z,51.28
2022-10-05T12:59:04.989Z,51.22
2022-10-05T13:02:48.827Z,51.01
2022-10-05T13:07:00.283Z,51.08
2022-10-05T13:10:48.640Z,50.55
2022-10-05T13:14:49.249Z,50.10
2022-10-05T13:18:54.327Z,50.10
2022-10-05T13:22:42.698Z,50.02
2022-10-05T13:26:33.324Z,49.72
2022-10-05T13:30:22.356Z,49.77
2022-10-05T13:34:20.083Z,49.38
2022-10-05T13:38:10.467Z,49.15
2022-10-05T13:41:55.623Z,48.66
2022-10-05T13:45:58.306Z,48.40
2022-10-05T13:49:50.170Z,48.53
2022-10-05T13:53:45.739Z,48.24
2022-10-05T13:58:01.639Z,48.21
2022-10-05T14:01:49.381Z,48.28
2022-10-05T14:05:31.295Z,48.40
2022-10-05T14:09:13.447Z,48.78
2022-10-05T14:12:54.409Z,48.95
2022-10-05T14:16:32.740Z,49.07
2022-10-05T14:20:31.374Z,49.29
2022-10-05T14:24:46.638Z,49.36
2022-10-05T14:28:32.777Z,49.45
2022-10-05T14:32:17.171Z,49.47
2022-10-05T14:35:55.953Z,49.50
2022-10-05T14:39:34.574Z,49.59
2022-10-05T14:43:16.718Z,49.76
2022-10-05T14:47:23.707Z,49.91
2022-10-05T14:50:31.652Z,49.85
2022-10-05T14:54:47.232Z,49.81
2022-10-05T14:58:42.016Z,50.18
2022-10-05T15:02:55.511Z,50.68
2022-10-05T15:06:41.796Z,51.08
2022-10-05T15:10:51.155Z,51.67
2022-10-05T15:14:47.254Z,52.01
2022-10-05T15:18:42.990Z,52.19
2022-10-05T15:23:04.227Z,52.26
2022-10-05T15:26:50.394Z,52.49
2022-10-05T15:30:26.715Z,52.66
2022-10-05T15:34:37.731Z,52.79
2022-10-05T15:38:25.727Z,53.37
2022-10-05T15:42:16.315Z,54.03
2022-10-05T15:46:02.490Z,54.40
2022-10-05T15:50:18.521Z,55.14
2022-10-05T15:54:19.885Z,55.54
2022-10-05T15:58:02.532Z,55.82
2022-10-05T16:01:50.734Z,56.05
2022-10-05T16:05:51.743Z,56.14
2022-10-05T16:09:40.670Z,56.40
2022-10-05T16:13:22.821Z,56.98
2022-10-05T16:17:44.801Z,57.82
2022-10-05T16:22:04.136Z,58.79
2022-10-05T16:25:54.192Z,59.58
2022-10-05T16:29:48.713Z,60.14
2022-10-05T16:33:47.000Z,60.51
2022-10-05T16:37:38.807Z,61.22
2022-10-05T16:41:38.038Z,61.79
2022-10-05T16:45:44.713Z,62.20
2022-10-05T16:49:38.958Z,62.56
2022-10-05T16:53:23.403Z,62.66
2022-10-05T16:57:09.178Z,63.11
2022-10-05T17:01:01.019Z,63.54
2022-10-05T17:04:42.643Z,64.00
2022-10-05T17:08:38.155Z,64.29
2022-10-05T17:12:23.380Z,64.46
2022-10-05T17:16:19.372Z,64.51
2022-10-05T17:20:13.606Z,64.78
2022-10-05T17:23:58.802Z,64.93
2022-10-05T17:27:57.110Z,65.02
2022-10-05T17:32:30.588Z,65.24
2022-10-05T17:36:17.691Z,65.28
2022-10-05T17:39:58.030Z,65.40
2022-10-05T17:43:36.181Z,65.60
2022-10-05T17:47:12.911Z,65.78
2022-10-05T17:51:28.210Z,66.03
2022-10-05T17:54:45.764Z,66.20
2022-10-05T17:58:26.004Z,66.20
2022-10-05T18:02:37.848Z,66.14
2022-10-05T18:06:26.385Z,66.37
2022-10-05T18:10:12.273Z,66.64
2022-10-05T18:14:07.959Z,66.87
2022-10-05T18:18:26.363Z,67.12
2022-10-05T18:22:28.804Z,67.32
2022-10-05T18:26:35.407Z,67.59
2022-10-05T18:30:23.955Z,67.72
2022-10-05T18:34:35.996Z,68.06
2022-10-05T18:38:49.321Z,68.34
2022-10-05T18:42:25.104Z,68.83
2022-10-05T18:46:15.714Z,69.13
2022-10-05T18:50:29.782Z,69.32
2022-10-05T18:54:18.424Z,69.40
2022-10-05T18:58:03.517Z,69.33
2022-10-05T19:02:04.650Z,69.30
2022-10-05T19:05:59.795Z,69.33
2022-10-05T19:09:38.896Z,69.23
2022-10-05T19:13:20.761Z,69.26
2022-10-05T19:17:25.312Z,69.30
2022-10-05T19:21:38.231Z,69.49
2022-10-05T19:25:22.093Z,69.57
2022-10-05T19:29:15.411Z,69.58
2022-10-05T19:33:03.187Z,69.47
2022-10-05T19:36:58.275Z,69.44
2022-10-05T19:40:49.415Z,69.17
2022-10-05T19:44:46.750Z,68.47
2022-10-05T19:48:36.119Z,67.86
2022-10-05T19:52:19.936Z,67.42
2022-10-05T19:56:10.911Z,66.97
2022-10-05T19:59:48.533Z,67.29
2022-10-05T20:03:30.917Z,67.86
2022-10-05T20:07:11.500Z,68.53
2022-10-05T20:11:07.944Z,69.16
2022-10-05T20:14:44.587Z,69.49
2022-10-05T20:18:46.282Z,70.02
2022-10-05T20:22:38.445Z,70.18
2022-10-05T20:26:39.019Z,69.89
2022-10-05T20:30:19.610Z,68.79
2022-10-05T20:33:55.675Z,68.06
2022-10-05T20:37:36.917Z,69.08
2022-10-05T20:41:12.737Z,69.73
2022-10-05T20:44:54.292Z,70.39
2022-10-05T20:48:32.711Z,70.83
2022-10-05T20:52:11.489Z,71.26
2022-10-05T20:55:48.232Z,71.51
2022-10-05T20:59:26.272Z,71.44
2022-10-05T21:03:04.441Z,71.47
2022-10-05T21:06:40.840Z,71.18
2022-10-05T21:10:22.198Z,71.29
2022-10-05T21:13:54.467Z,71.22
2022-10-05T21:17:32.832Z,71.10
2022-10-05T21:21:09.488Z,71.20
2022-10-05T21:24:46.020Z,71.40
2022-10-05T21:28:22.902Z,71.64
2022-10-05T21:31:59.356Z,71.71
2022-10-05T21:35:35.674Z,71.86
2022-10-05T21:39:14.463Z,71.90
2022-10-05T21:42:50.952Z,71.95
2022-10-05T21:46:28.102Z,71.97
2022-10-05T21:50:04.573Z,72.00
2022-10-05T21:53:46.102Z,72.04
2022-10-05T21:57:22.321Z,72.08
2022-10-05T22:00:58.891Z,71.80
2022-10-05T22:04:36.825Z,71.20
2022-10-05T22:08:28.554Z,70.90
2022-10-05T22:12:04.941Z,70.48
2022-10-05T22:15:43.941Z,69.89
2022-10-05T22:19:20.694Z,69.74
2022-10-05T22:22:57.522Z,69.43
2022-10-05T22:26:34.117Z,69.30
2022-10-05T22:30:11.007Z,69.19
2022-10-05T22:33:48.152Z,69.02
2022-10-05T22:37:25.515Z,69.04
2022-10-05T22:41:01.943Z,68.88
2022-10-05T22:44:38.724Z,68.79
2022-10-05T22:48:14.916Z,68.82
2022-10-05T22:51:54.012Z,68.80
2022-10-05T22:55:29.992Z,68.80
2022-10-05T22:59:06.877Z,68.82
2022-10-05T23:02:45.056Z,68.79
2022-10-05T23:06:21.283Z,68.84
2022-10-05T23:09:57.717Z,68.84
2022-10-05T23:13:34.667Z,68.85
2022-10-05T23:17:11.406Z,68.79
2022-10-05T23:20:55.558Z,68.91
2022-10-05T23:24:31.339Z,68.88
2022-10-05T23:28:08.099Z,68.89
2022-10-05T23:31:45.843Z,68.80
2022-10-05T23:35:23.170Z,68.76
2022-10-05T23:39:00.049Z,68.74
2022-10-05T23:42:36.683Z,68.76
2022-10-05T23:46:13.551Z,68.83
2022-10-05T23:49:49.460Z,68.88
2022-10-05T23:53:27.315Z,68.84
2022-10-05T23:57:06.512Z,68.95
